EW4264 Weather Reports


time (UTC)temp
F
wind
direction
speed
knots
gust
knots
rain 1hr
in
rain 24hr
in
rain mn
in
humidity
%
barometer
mb
20181015231521 44 150 5.2 15.6 0.00 1.74 1.74 95 1022.0
20181015230004 43 159 6.1 12.2 0.00 1.74 1.74 95 1021.8
20181015224513 43 142 7.0 13.9 0.00 1.74 1.74 95 1021.7
20181015223002 43 171 7.8 13.0 0.01 1.74 1.74 95 1021.8
20181015221639 43 138 7.8 13.0 0.01 1.74 1.74 95 1021.8
20181015220133 43 146 5.2 13.0 0.01 1.74 1.74 95 1021.7
20181015214634 43 144 5.2 13.9 0.03 1.74 1.74 96 1021.8
20181015213146 43 173 5.2 12.2 0.08 1.73 1.73 96 1021.2
20181015211657 43 157 7.0 14.8 0.19 1.73 1.73 96 1021.2
20181015210131 43 162 6.1 10.4 0.22 1.73 1.73 96 1021.5
20181015204736 43 155 5.2 12.2 0.23 1.71 1.71 96 1021.4
20181015203200 43 196 4.3 13.9 0.26 1.63 1.63 95 1022.1
20181015201723 43 194 8.7 14.8 0.35 1.53 1.53 95 1023.1
20181015200144 43 152 6.1 13.0 0.35 1.51 1.51 95 1022.2
20181015194636 43 136 7.8 17.4 0.32 1.48 1.48 95 1022.6
20181015193200 43 174 6.1 13.9 0.19 1.35 1.35 94 1022.1
20181015191613 44 179 6.1 12.2 0.02 1.18 1.18 94 1022.4
20181015190128 44 211 8.7 13.9 0.00 1.15 1.15 93 1022.5
20181015184641 44 169 5.2 15.6 0.00 1.15 1.15 94 1022.5
20181015183123 43 139 4.3 13.0 0.00 1.15 1.15 94 1022.3
20181015181641 43 161 9.6 16.5 0.01 1.15 1.15 94 1022.4
20181015180111 43 207 8.7 20.0 0.01 1.15 1.15 95 1022.6
20181015174618 43 123 8.7 15.6 0.01 1.15 1.15 95 1022.7
20181015173101 43 223 6.1 13.9 0.00 1.14 1.14 96 1022.5
20181015171600 43 148 4.3 13.9 0.03 1.14 1.14 96 1022.8
20181015170126 43 169 8.7 17.4 0.19 1.14 1.14 96 1022.9
20181015164608 43 123 7.8 13.9 0.24 1.14 1.14 96 1022.8
20181015163047 42 184 9.6 22.6 0.26 1.14 1.14 96 1022.1
20181015161605 42 196 8.7 17.4 0.25 1.12 1.12 96 1022.3
20181015160045 43 187 5.2 11.3 0.15 0.96 0.96 96 1022.7
20181015154545 43 171 6.1 14.8 0.11 0.91 0.91 96 1023.0
20181015153032 42 187 7.0 14.8 0.12 0.89 0.89 96 1022.3
20181015151529 43 154 6.1 16.5 0.17 0.87 0.87 96 1022.6
20181015150051 43 188 9.6 16.5 0.14 0.81 0.81 96 1021.8
20181015144521 43 188 8.7 16.5 0.17 0.80 0.80 96 1022.0
20181015143044 43 144 7.0 16.5 0.14 0.77 0.77 96 1021.9
20181015141517 44 188 6.1 16.5 0.09 0.70 0.70 96 1021.4
20181015140016 44 167 8.7 13.9 0.12 0.66 0.66 95 1021.2
20181015134510 44 195 5.2 13.9 0.11 0.63 0.63 95 1021.3
20181015133028 44 142 10.4 17.4 0.16 0.63 0.63 95 1020.5
20181015131507 44 223 7.8 18.2 0.21 0.60 0.60 95 1020.6
20181015130012 44 156 6.1 16.5 0.16 0.53 0.53 95 1020.5
20181015124503 44 168 9.6 18.2 0.16 0.52 0.52 95 1019.7
20181015123213 45 129 8.7 16.5 0.11 0.47 0.47 96 1019.6
20181015121717 45 167 7.8 16.5 0.04 0.40 0.40 96 1019.8
20181015120241 45 130 8.7 13.0 0.02 0.37 0.37 96 1019.5
20181015114630 45 181 6.1 14.8 0.01 0.36 0.36 95 1019.1
20181015113113 45 196 10.4 17.4 0.02 0.36 0.36 95 1019.4
20181015111622 47 180 5.2 13.9 0.03 0.36 0.36 95 1019.0
20181015110109 48 150 5.2 9.6 0.07 0.35 0.35 96 1018.6
20181015104611 47 261 3.5 12.2 0.08 0.35 0.35 95 1017.9
20181015103101 47 173 6.1 17.4 0.07 0.34 0.34 95 1017.5
20181015101556 48 167 8.7 14.8 0.06 0.33 0.33 95 1017.5
20181015100051 48 172 7.8 13.9 0.01 0.28 0.28 95 1017.0
20181015094600 49 180 7.0 14.8 0.00 0.27 0.27 94 1017.0
20181015093043 49 129 6.1 19.1 0.00 0.27 0.27 94 1016.9
20181015091615 49 190 7.8 17.4 0.00 0.27 0.27 95 1016.9
20181015090048 50 153 7.0 13.9 0.00 0.27 0.27 95 1016.9
20181015084541 51 180 4.3 16.5 0.00 0.27 0.27 95 1016.7
20181015083053 52 179 6.1 13.9 0.01 0.27 0.27 95 1016.9
20181015081527 52 143 5.2 11.3 0.01 0.27 0.27 94 1017.1
20181015080026 53 242 5.2 14.8 0.04 0.27 0.27 94 1017.0
20181015074526 53 161 6.1 15.6 0.12 0.28 0.27 94 1016.9
20181015073023 53 182 8.7 14.8 0.14 0.27 0.26 94 1016.9
20181015071511 54 144 7.8 13.9 0.21 0.27 0.26 94 1016.8
20181015070001 56 230 6.1 13.9 0.21 0.23 0.22 94 1016.4
20181015064642 56 163 6.1 12.2 0.15 0.16 0.15 94 1016.1
20181015063203 58 151 7.8 15.6 0.12 0.13 0.12 93 1015.4
20181015061718 59 146 6.1 12.2 0.05 0.06 0.05 93 1015.2
20181015060125 61 153 7.0 13.9 0.01 0.02 0.01 91 1014.7
20181015054547 63 150 8.7 15.6 0.00 0.01 0.00 86 1014.2
20181015053123 67 227 8.7 14.8 0.00 0.01 0.00 84 1013.7
20181015051537 70 184 6.1 14.8 0.00 0.01 0.00 81 1013.0
20181015050109 77 289 0.0 8.7 0.00 0.01 0.00 88 1012.1
20181015044552 77 340 5.2 9.6 0.00 0.01 0.01 87 1011.9
20181015043104 77 345 4.3 9.6 0.00 0.01 0.01 87 1011.7
20181015041549 77 350 5.2 8.7 0.00 0.01 0.01 86 1011.7
20181015040054 77 329 4.3 8.7 0.00 0.01 0.01 85 1011.5
20181015034536 78 21 3.5 11.3 0.00 0.01 0.01 84 1011.5
20181015033028 78 335 3.5 7.8 0.00 0.01 0.01 83 1011.3
20181015031525 79 317 0.9 5.2 0.00 0.01 0.01 82 1011.1
20181015030108 79 5 5.2 10.4 0.00 0.01 0.01 81 1010.6
20181015024528 80 360 5.2 12.2 0.00 0.01 0.01 81 1010.4
20181015023026 80 310 8.7 13.0 0.00 0.01 0.01 80 1010.3
20181015021527 80 360 6.1 10.4 0.00 0.01 0.01 80 1010.2
20181015020029 81 5 6.1 10.4 0.00 0.01 0.01 79 1010.0
20181015014514 81 11 4.3 11.3 0.00 0.01 0.01 79 1009.9
20181015013011 81 336 5.2 8.7 0.00 0.01 0.01 79 1009.6
20181015011509 81 344 4.3 10.4 0.00 0.01 0.01 77 1009.3
20181015010014 81 325 5.2 10.4 0.00 0.01 0.01 77 1009.1
20181015004519 81 355 5.2 10.4 0.00 0.01 0.01 78 1008.9
20181015003011 82 5 5.2 10.4 0.00 0.01 0.01 78 1008.7
20181015001523 82 360 5.2 8.7 0.00 0.01 0.01 76 1008.6
20181015000204 83 342 3.5 10.4 0.00 0.01 0.01 75 1008.4
20181014234610 83 349 4.3 10.4 0.00 0.01 0.01 74 1008.4
20181014233200 84 338 6.1 12.2 0.00 0.01 0.01 72 1008.3
20181014233024 84 338 4.3 12.2 0.00 0.01 0.01 72 1008.3